Iglesia, Argentina
Current Conditions -  °F | °C
As of 7:00 PM on Wednesday 28 Jan 2015 (Local Time) from SCSE Reporting Station
Clear Clear  
Wind Chill: 19°   Ceiling: Unl
Heat Index: 19°   Visibility: 6mi
Dew Point: 13°   Wind: 10mph
Humidity: 68%   Direction: 300°WNW
Pressure: 29.91"   Gusts: NA
Location:  30.17°S, 69.21°W
Report Text: SCSE 282200Z 30009KT CAVOK 19/13 Q1013
Loading
Personal Weather Stations






























Interactive Weather Map New forecast layout! Learn more

10-Day Weather Forecast

Advertisements
Track Severe Weather on mobile